createdAt,value
2023-05-01T00:00:31.194Z,5.94
2023-05-01T00:02:58.653Z,5.93
2023-05-01T00:05:26.505Z,5.98
2023-05-01T00:07:53.861Z,6.02
2023-05-01T00:10:21.413Z,6.00
2023-05-01T00:12:48.894Z,5.96
2023-05-01T00:15:16.743Z,5.91
2023-05-01T00:17:44.166Z,5.88
2023-05-01T00:20:11.913Z,5.89
2023-05-01T00:22:39.350Z,5.96
2023-05-01T00:25:07.378Z,6.01
2023-05-01T00:27:35.069Z,6.04
2023-05-01T00:30:03.528Z,6.06
2023-05-01T00:32:30.963Z,6.11
2023-05-01T00:34:58.379Z,6.11
2023-05-01T00:37:26.008Z,6.22
2023-05-01T00:39:53.655Z,6.19
2023-05-01T00:42:21.114Z,6.13
2023-05-01T00:44:48.655Z,6.06
2023-05-01T00:47:16.136Z,6.15
2023-05-01T00:49:44.798Z,6.20
2023-05-01T00:52:12.364Z,6.25
2023-05-01T00:54:39.987Z,6.28
2023-05-01T00:57:09.727Z,6.18
2023-05-01T00:59:37.276Z,6.10
2023-05-01T01:02:04.976Z,6.03
2023-05-01T01:04:33.697Z,6.02
2023-05-01T01:07:21.552Z,6.00
2023-05-01T01:10:16.412Z,5.93
2023-05-01T01:13:09.137Z,5.83
2023-05-01T01:15:47.775Z,5.89
2023-05-01T01:18:35.411Z,5.87
2023-05-01T01:21:13.094Z,5.85
2023-05-01T01:23:43.632Z,5.84
2023-05-01T01:26:47.497Z,6.01
2023-05-01T01:29:27.090Z,6.12
2023-05-01T01:31:57.149Z,6.18
2023-05-01T01:34:35.488Z,6.23
2023-05-01T01:37:33.605Z,6.43
2023-05-01T01:40:09.351Z,6.28
2023-05-01T01:42:42.281Z,6.11
2023-05-01T01:45:19.496Z,6.00
2023-05-01T01:47:48.518Z,5.83
2023-05-01T01:50:18.633Z,5.78
2023-05-01T01:52:49.436Z,5.72
2023-05-01T01:55:21.832Z,5.76
2023-05-01T01:57:52.150Z,5.81
2023-05-01T02:00:20.877Z,5.83
2023-05-01T02:02:52.487Z,5.86
2023-05-01T02:05:21.843Z,5.80
2023-05-01T02:07:51.411Z,5.78
2023-05-01T02:10:21.137Z,5.92
2023-05-01T02:12:51.185Z,5.98
2023-05-01T02:15:21.204Z,6.04
2023-05-01T02:17:51.411Z,6.06
2023-05-01T02:20:20.133Z,6.06
2023-05-01T02:22:49.595Z,6.07
2023-05-01T02:25:17.084Z,6.12
2023-05-01T02:27:53.732Z,6.03
2023-05-01T02:30:21.819Z,6.05
2023-05-01T02:32:49.486Z,6.07
2023-05-01T02:35:17.768Z,5.97
2023-05-01T02:37:45.902Z,6.01
2023-05-01T02:40:15.271Z,5.95
2023-05-01T02:42:48.206Z,5.95
2023-05-01T02:45:22.338Z,5.78
2023-05-01T02:47:51.829Z,5.66
2023-05-01T02:50:20.653Z,5.66
2023-05-01T02:52:48.783Z,5.77
2023-05-01T02:55:36.051Z,5.68
2023-05-01T02:58:03.658Z,5.65
2023-05-01T03:00:31.237Z,5.75
2023-05-01T03:02:58.807Z,5.70
2023-05-01T03:05:26.926Z,5.78
2023-05-01T03:07:54.423Z,5.64
2023-05-01T03:10:22.384Z,5.55
2023-05-01T03:12:49.797Z,5.56
2023-05-01T03:15:18.701Z,5.44
2023-05-01T03:17:46.242Z,5.52
2023-05-01T03:20:13.817Z,5.48
2023-05-01T03:22:41.335Z,5.53
2023-05-01T03:25:09.783Z,5.47
2023-05-01T03:27:38.659Z,5.46
2023-05-01T03:30:07.329Z,5.33
2023-05-01T03:32:39.025Z,5.37
2023-05-01T03:35:10.774Z,5.49
2023-05-01T03:37:38.695Z,5.47
2023-05-01T03:40:06.971Z,5.63
2023-05-01T03:42:52.933Z,5.57
2023-05-01T03:45:24.670Z,5.65
2023-05-01T03:47:52.753Z,5.88
2023-05-01T03:50:20.731Z,5.98
2023-05-01T03:52:50.891Z,6.35
2023-05-01T03:55:18.780Z,6.75
2023-05-01T03:57:48.018Z,7.12
2023-05-01T04:00:16.914Z,7.39
2023-05-01T04:02:46.097Z,7.65
2023-05-01T04:05:19.055Z,8.19
2023-05-01T04:07:51.472Z,8.44
2023-05-01T04:10:19.185Z,8.38
2023-05-01T04:12:56.916Z,8.47
2023-05-01T04:15:24.499Z,8.96
2023-05-01T04:17:52.912Z,9.31
2023-05-01T04:20:20.706Z,9.54
2023-05-01T04:22:48.371Z,10.23
2023-05-01T04:25:16.115Z,10.47
2023-05-01T04:27:45.283Z,10.62
2023-05-01T04:30:15.517Z,10.62
2023-05-01T04:32:43.342Z,10.76
2023-05-01T04:35:12.361Z,10.78
2023-05-01T04:37:43.195Z,10.65
2023-05-01T04:40:11.858Z,10.73
2023-05-01T04:42:40.706Z,11.14
2023-05-01T04:45:11.996Z,11.10
2023-05-01T04:47:39.541Z,10.47
2023-05-01T04:50:07.304Z,10.88
2023-05-01T04:52:36.084Z,11.24
2023-05-01T04:55:05.150Z,11.70
2023-05-01T04:57:36.590Z,12.23
2023-05-01T05:00:08.132Z,12.49
2023-05-01T05:02:45.548Z,12.67
2023-05-01T05:05:15.248Z,12.98
2023-05-01T05:07:42.879Z,12.65
2023-05-01T05:10:28.748Z,12.18
2023-05-01T05:13:11.000Z,12.40
2023-05-01T05:15:39.700Z,11.83
2023-05-01T05:18:10.218Z,11.81
2023-05-01T05:20:40.748Z,11.65
2023-05-01T05:23:09.353Z,11.46
2023-05-01T05:25:36.791Z,11.31
2023-05-01T05:28:04.759Z,11.29
2023-05-01T05:30:32.275Z,11.51
2023-05-01T05:33:00.359Z,11.67
2023-05-01T05:35:28.517Z,12.42
2023-05-01T05:37:56.149Z,12.75
2023-05-01T05:40:24.536Z,13.21
2023-05-01T05:42:56.700Z,13.56
2023-05-01T05:45:26.277Z,13.91
2023-05-01T05:47:53.936Z,14.04
2023-05-01T05:50:21.629Z,14.19
2023-05-01T05:52:49.079Z,14.16
2023-05-01T05:55:16.624Z,13.71
2023-05-01T05:57:57.970Z,13.73
2023-05-01T06:00:25.585Z,13.37
2023-05-01T06:02:53.994Z,13.68
2023-05-01T06:05:23.116Z,14.09
2023-05-01T06:07:51.274Z,14.34
2023-05-01T06:10:18.997Z,14.85
2023-05-01T06:12:52.782Z,15.35
2023-05-01T06:15:32.985Z,15.13
2023-05-01T06:18:00.867Z,15.09
2023-05-01T06:20:28.411Z,14.92
2023-05-01T06:22:56.884Z,14.39
2023-05-01T06:25:33.186Z,14.20
2023-05-01T06:28:00.803Z,13.72
2023-05-01T06:30:29.416Z,13.90
2023-05-01T06:32:57.063Z,14.08
2023-05-01T06:35:24.713Z,14.02
2023-05-01T06:37:52.227Z,14.46
2023-05-01T06:40:20.074Z,13.87
2023-05-01T06:42:47.852Z,14.07
2023-05-01T06:45:15.978Z,13.89
2023-05-01T06:47:43.521Z,14.52
2023-05-01T06:50:11.348Z,14.41
2023-05-01T06:52:38.810Z,14.57
2023-05-01T06:55:08.225Z,15.17
2023-05-01T06:57:35.727Z,15.28
2023-05-01T07:00:03.828Z,15.72
2023-05-01T07:02:31.379Z,15.72
2023-05-01T07:04:59.783Z,16.06
2023-05-01T07:07:27.277Z,16.17
2023-05-01T07:09:54.941Z,15.80
2023-05-01T07:12:23.423Z,16.37
2023-05-01T07:14:50.844Z,16.99
2023-05-01T07:17:18.301Z,17.13
2023-05-01T07:19:45.789Z,16.81
2023-05-01T07:22:13.290Z,17.03
2023-05-01T07:24:40.747Z,16.75
2023-05-01T07:27:08.184Z,16.57
2023-05-01T07:29:40.784Z,16.68
2023-05-01T07:32:08.319Z,16.57
2023-05-01T07:34:35.952Z,16.84
2023-05-01T07:37:04.894Z,17.40
2023-05-01T07:39:32.346Z,16.83
2023-05-01T07:41:59.895Z,17.07
2023-05-01T07:44:27.369Z,16.54
2023-05-01T07:46:54.974Z,16.72
2023-05-01T07:49:22.677Z,16.76
2023-05-01T07:51:50.169Z,16.44
2023-05-01T07:54:22.164Z,16.65
2023-05-01T07:56:49.939Z,16.98
2023-05-01T07:59:17.331Z,17.05
2023-05-01T08:01:44.890Z,16.86
2023-05-01T08:04:12.428Z,17.03
2023-05-01T08:06:40.267Z,17.07
2023-05-01T08:09:08.126Z,17.02
2023-05-01T08:11:35.605Z,17.01
2023-05-01T08:14:03.993Z,16.52
2023-05-01T08:16:31.580Z,16.77
2023-05-01T08:18:59.677Z,17.06
2023-05-01T08:21:27.231Z,16.50
2023-05-01T08:23:56.693Z,16.84
2023-05-01T08:26:24.241Z,17.24
2023-05-01T08:28:51.739Z,17.47
2023-05-01T08:31:19.700Z,17.58
2023-05-01T08:33:47.350Z,17.52
2023-05-01T08:36:14.860Z,17.58
2023-05-01T08:38:42.558Z,17.69
2023-05-01T08:41:10.360Z,17.58
2023-05-01T08:43:38.086Z,17.63
2023-05-01T08:46:09.937Z,18.18
2023-05-01T08:48:41.203Z,18.10
2023-05-01T08:51:11.926Z,18.16
2023-05-01T08:53:41.629Z,17.85
2023-05-01T08:56:13.658Z,17.72
2023-05-01T08:58:45.420Z,18.11
2023-05-01T09:01:16.473Z,17.95
2023-05-01T09:03:46.436Z,18.41
2023-05-01T09:06:14.321Z,18.79
2023-05-01T09:08:41.754Z,18.61
2023-05-01T09:11:09.529Z,18.93
2023-05-01T09:13:36.984Z,18.59
2023-05-01T09:16:06.010Z,18.35
2023-05-01T09:18:35.002Z,17.83
2023-05-01T09:21:03.670Z,18.58
2023-05-01T09:23:31.425Z,18.61
2023-05-01T09:25:59.923Z,18.32
2023-05-01T09:29:00.587Z,18.63
2023-05-01T09:31:29.940Z,18.55
2023-05-01T09:33:59.562Z,18.65
2023-05-01T09:36:28.905Z,18.21
2023-05-01T09:38:56.683Z,17.63
2023-05-01T09:41:24.580Z,17.74
2023-05-01T09:43:57.235Z,17.49
2023-05-01T09:46:26.145Z,17.41
2023-05-01T09:49:01.735Z,17.97
2023-05-01T09:51:33.490Z,18.15
2023-05-01T09:54:03.303Z,18.80
2023-05-01T09:56:34.138Z,18.73
2023-05-01T09:59:20.149Z,19.03
2023-05-01T10:01:50.535Z,18.64
2023-05-01T10:04:29.550Z,18.56
2023-05-01T10:06:57.247Z,18.43
2023-05-01T10:09:29.448Z,18.83
2023-05-01T10:11:57.967Z,19.18
2023-05-01T10:14:27.166Z,19.21
2023-05-01T10:16:54.919Z,19.21
2023-05-01T10:19:22.654Z,19.06
2023-05-01T10:21:50.157Z,19.02
2023-05-01T10:24:18.029Z,19.23
2023-05-01T10:26:48.758Z,18.78
2023-05-01T10:29:17.858Z,18.81
2023-05-01T10:31:45.505Z,18.82
2023-05-01T10:34:18.423Z,18.83
2023-05-01T10:36:55.029Z,18.87
2023-05-01T10:39:33.526Z,19.45
2023-05-01T10:42:05.947Z,19.46
2023-05-01T10:44:35.181Z,19.19
2023-05-01T10:47:24.719Z,19.08
2023-05-01T10:50:09.792Z,19.21
2023-05-01T10:53:14.821Z,18.99
2023-05-01T10:55:46.901Z,19.32
2023-05-01T10:58:36.927Z,19.47
2023-05-01T11:01:30.384Z,19.37
2023-05-01T11:04:00.129Z,19.46
2023-05-01T11:06:27.938Z,19.82
2023-05-01T11:08:56.180Z,19.85
2023-05-01T11:11:27.057Z,19.99
2023-05-01T11:14:01.644Z,19.77
2023-05-01T11:16:38.566Z,19.81
2023-05-01T11:19:21.155Z,19.90
2023-05-01T11:21:50.637Z,20.32
2023-05-01T11:24:19.102Z,20.15
2023-05-01T11:26:48.508Z,20.08
2023-05-01T11:29:15.981Z,20.08
2023-05-01T11:31:48.624Z,19.81
2023-05-01T11:34:16.518Z,19.94
2023-05-01T11:36:51.352Z,19.89
2023-05-01T11:39:19.785Z,20.09
2023-05-01T11:41:47.843Z,20.34
2023-05-01T11:44:17.422Z,20.47
2023-05-01T11:46:45.292Z,19.81
2023-05-01T11:49:12.817Z,20.36
2023-05-01T11:51:40.432Z,20.50
2023-05-01T11:54:09.922Z,20.55
2023-05-01T11:56:38.415Z,20.48
2023-05-01T11:59:13.885Z,20.19
2023-05-01T12:01:44.028Z,20.36
2023-05-01T12:04:13.045Z,20.48
2023-05-01T12:06:46.083Z,20.26
2023-05-01T12:09:23.686Z,19.67
2023-05-01T12:11:53.118Z,19.18
2023-05-01T12:14:22.170Z,18.52
2023-05-01T12:16:50.008Z,18.78
2023-05-01T12:19:18.352Z,19.03
2023-05-01T12:21:45.933Z,19.09
2023-05-01T12:24:17.044Z,19.18
2023-05-01T12:26:46.182Z,19.09
2023-05-01T12:29:13.966Z,19.27
2023-05-01T12:31:49.515Z,19.42
2023-05-01T12:34:18.311Z,19.52
2023-05-01T12:36:55.068Z,19.57
2023-05-01T12:39:23.768Z,19.18
2023-05-01T12:41:51.615Z,19.43
2023-05-01T12:44:23.958Z,19.66
2023-05-01T12:47:08.927Z,19.44
2023-05-01T12:49:37.674Z,19.60
2023-05-01T12:52:07.943Z,19.70
2023-05-01T12:54:40.039Z,19.67
2023-05-01T12:57:15.939Z,19.52
2023-05-01T12:59:45.197Z,19.91
2023-05-01T13:02:17.821Z,20.15
2023-05-01T13:04:49.295Z,20.34
2023-05-01T13:07:19.129Z,20.58
2023-05-01T13:10:00.524Z,20.76
2023-05-01T13:12:29.002Z,20.50
2023-05-01T13:14:57.064Z,20.54
2023-05-01T13:17:27.073Z,20.19
2023-05-01T13:20:00.119Z,20.35
2023-05-01T13:22:32.564Z,19.76
2023-05-01T13:25:01.709Z,19.83
2023-05-01T13:27:29.563Z,19.74
2023-05-01T13:30:00.025Z,19.83
2023-05-01T13:32:28.484Z,19.73
2023-05-01T13:34:56.241Z,20.00
2023-05-01T13:37:23.787Z,19.73
2023-05-01T13:39:51.322Z,19.64
2023-05-01T13:42:26.382Z,19.81
2023-05-01T13:44:55.785Z,19.59
2023-05-01T13:47:28.192Z,19.73
2023-05-01T13:49:56.209Z,19.73
2023-05-01T13:52:24.563Z,19.51
2023-05-01T13:54:56.025Z,19.54
2023-05-01T13:57:25.100Z,19.55
2023-05-01T13:59:52.589Z,19.60
2023-05-01T14:02:25.351Z,20.01
2023-05-01T14:04:53.356Z,19.84
2023-05-01T14:07:23.084Z,19.62
2023-05-01T14:09:58.207Z,19.51
2023-05-01T14:12:30.684Z,19.12
2023-05-01T14:15:00.588Z,19.38
2023-05-01T14:17:38.206Z,19.57
2023-05-01T14:20:07.509Z,19.33
2023-05-01T14:22:45.741Z,19.30
2023-05-01T14:25:23.935Z,18.95
2023-05-01T14:27:52.968Z,19.02
2023-05-01T14:30:23.264Z,18.99
2023-05-01T14:32:50.774Z,18.98
2023-05-01T14:35:20.252Z,19.10
2023-05-01T14:37:47.964Z,19.01
2023-05-01T14:40:18.020Z,19.55
2023-05-01T14:42:45.695Z,19.68
2023-05-01T14:45:16.795Z,19.49
2023-05-01T14:47:49.302Z,19.39
2023-05-01T14:50:20.729Z,19.56
2023-05-01T14:52:53.315Z,19.42
2023-05-01T14:55:29.586Z,19.36
2023-05-01T14:57:57.993Z,19.45
2023-05-01T15:00:26.412Z,19.65
2023-05-01T15:02:55.610Z,19.10
2023-05-01T15:05:24.833Z,18.87
2023-05-01T15:07:54.940Z,19.17
2023-05-01T15:10:23.715Z,19.45
2023-05-01T15:12:51.492Z,19.37
2023-05-01T15:15:19.135Z,19.29
2023-05-01T15:17:47.001Z,19.49
2023-05-01T15:20:14.556Z,19.13
2023-05-01T15:22:42.068Z,18.56
2023-05-01T15:25:11.094Z,18.62
2023-05-01T15:27:38.539Z,18.42
2023-05-01T15:30:06.651Z,18.43
2023-05-01T15:32:34.303Z,18.20
2023-05-01T15:35:01.872Z,17.99
2023-05-01T15:37:31.397Z,17.94
2023-05-01T15:39:59.632Z,18.13
2023-05-01T15:42:27.232Z,18.15
2023-05-01T15:44:54.673Z,18.18
2023-05-01T15:47:22.215Z,18.21
2023-05-01T15:49:49.728Z,18.40
2023-05-01T15:52:17.172Z,18.38
2023-05-01T15:54:46.932Z,18.40
2023-05-01T15:57:17.829Z,18.34
2023-05-01T15:59:45.427Z,18.41
2023-05-01T16:02:13.045Z,18.28
2023-05-01T16:04:40.530Z,18.32
2023-05-01T16:07:09.044Z,18.34
2023-05-01T16:09:36.557Z,18.34
2023-05-01T16:12:06.837Z,18.49
2023-05-01T16:14:42.998Z,18.31
2023-05-01T16:17:10.846Z,18.19
2023-05-01T16:19:39.367Z,18.31
2023-05-01T16:22:07.416Z,18.31
2023-05-01T16:24:36.292Z,18.34
2023-05-01T16:27:03.875Z,18.33
2023-05-01T16:29:35.353Z,18.45
2023-05-01T16:32:05.942Z,18.45
2023-05-01T16:34:33.585Z,18.42
2023-05-01T16:37:01.133Z,18.43
2023-05-01T16:39:28.659Z,18.41
2023-05-01T16:41:56.264Z,18.49
2023-05-01T16:44:23.818Z,18.41
2023-05-01T16:46:56.251Z,18.37
2023-05-01T16:49:24.891Z,18.39
2023-05-01T16:51:56.784Z,18.44
2023-05-01T16:54:36.252Z,18.47
2023-05-01T16:57:03.790Z,18.49
2023-05-01T16:59:31.674Z,18.52
2023-05-01T17:01:59.180Z,18.51
2023-05-01T17:04:26.847Z,18.57
2023-05-01T17:06:56.195Z,18.52
2023-05-01T17:09:23.944Z,18.44
2023-05-01T17:11:56.988Z,18.26
2023-05-01T17:14:24.928Z,18.17
2023-05-01T17:16:53.286Z,17.91
2023-05-01T17:19:20.894Z,17.82
2023-05-01T17:21:48.387Z,17.84
2023-05-01T17:24:15.982Z,17.73
2023-05-01T17:26:43.543Z,17.62
2023-05-01T17:29:10.952Z,17.56
2023-05-01T17:31:38.509Z,17.48
2023-05-01T17:34:06.089Z,17.34
2023-05-01T17:36:33.683Z,17.29
2023-05-01T17:39:01.608Z,17.13
2023-05-01T17:41:29.150Z,17.08
2023-05-01T17:43:56.764Z,16.99
2023-05-01T17:46:24.770Z,16.92
2023-05-01T17:48:52.450Z,16.84
2023-05-01T17:51:19.995Z,16.74
2023-05-01T17:53:47.594Z,16.71
2023-05-01T17:56:15.124Z,16.62
2023-05-01T17:58:42.678Z,16.45
2023-05-01T18:01:10.248Z,16.32
2023-05-01T18:03:38.075Z,16.26
2023-05-01T18:06:06.175Z,16.21
2023-05-01T18:08:34.316Z,16.12
2023-05-01T18:11:02.745Z,16.08
2023-05-01T18:13:32.547Z,16.00
2023-05-01T18:16:00.033Z,15.91
2023-05-01T18:18:27.560Z,15.86
2023-05-01T18:20:55.301Z,15.79
2023-05-01T18:23:25.313Z,15.74
2023-05-01T18:25:54.608Z,15.69
2023-05-01T18:28:22.347Z,15.64
2023-05-01T18:30:49.853Z,15.57
2023-05-01T18:33:18.238Z,15.55
2023-05-01T18:35:45.727Z,15.50
2023-05-01T18:38:13.288Z,15.44
2023-05-01T18:40:40.844Z,15.43
2023-05-01T18:43:08.420Z,15.40
2023-05-01T18:45:35.896Z,15.36
2023-05-01T18:48:03.889Z,15.35
2023-05-01T18:50:31.447Z,15.31
2023-05-01T18:52:58.999Z,15.27
2023-05-01T18:55:26.969Z,15.25
2023-05-01T18:57:54.484Z,15.20
2023-05-01T19:00:22.041Z,15.17
2023-05-01T19:02:52.176Z,15.16
2023-05-01T19:05:20.264Z,15.13
2023-05-01T19:07:47.753Z,15.05
2023-05-01T19:10:15.261Z,15.02
2023-05-01T19:12:42.722Z,15.02
2023-05-01T19:15:10.686Z,14.98
2023-05-01T19:17:38.168Z,14.96
2023-05-01T19:20:06.456Z,14.93
2023-05-01T19:22:33.930Z,14.86
2023-05-01T19:25:01.937Z,14.81
2023-05-01T19:27:29.388Z,14.79
2023-05-01T19:30:01.425Z,14.75
2023-05-01T19:32:29.357Z,14.66
2023-05-01T19:34:57.136Z,14.61
2023-05-01T19:37:24.698Z,14.61
2023-05-01T19:39:52.127Z,14.59
2023-05-01T19:42:19.717Z,14.60
2023-05-01T19:44:47.336Z,14.53
2023-05-01T19:47:14.728Z,14.50
2023-05-01T19:49:42.214Z,14.49
2023-05-01T19:52:10.501Z,14.51
2023-05-01T19:54:37.976Z,14.55
2023-05-01T19:57:05.691Z,14.51
2023-05-01T19:59:33.276Z,14.45
2023-05-01T20:02:01.465Z,14.43
2023-05-01T20:04:29.180Z,14.43
2023-05-01T20:06:56.636Z,14.40
2023-05-01T20:09:25.562Z,14.34
2023-05-01T20:11:53.042Z,14.27
2023-05-01T20:14:20.475Z,14.23
2023-05-01T20:16:49.323Z,14.20
2023-05-01T20:19:17.906Z,14.17
2023-05-01T20:21:45.475Z,14.12
2023-05-01T20:24:12.964Z,14.04
2023-05-01T20:26:40.484Z,13.97
2023-05-01T20:29:09.422Z,14.00
2023-05-01T20:31:37.408Z,13.96
2023-05-01T20:34:05.028Z,14.00
2023-05-01T20:36:32.914Z,13.98
2023-05-01T20:39:00.353Z,13.85
2023-05-01T20:41:29.181Z,13.74
2023-05-01T20:43:56.684Z,13.74
2023-05-01T20:46:24.941Z,13.69
2023-05-01T20:48:53.584Z,13.67
2023-05-01T20:51:21.137Z,13.57
2023-05-01T20:53:48.948Z,13.52
2023-05-01T20:56:16.371Z,13.52
2023-05-01T20:58:43.852Z,13.45
2023-05-01T21:01:11.917Z,13.44
2023-05-01T21:03:40.350Z,13.45
2023-05-01T21:06:08.138Z,13.44
2023-05-01T21:08:35.649Z,13.40
2023-05-01T21:11:03.077Z,13.36
2023-05-01T21:13:31.808Z,13.29
2023-05-01T21:15:59.794Z,13.27
2023-05-01T21:18:32.613Z,13.24
2023-05-01T21:21:02.095Z,13.08
2023-05-01T21:23:29.917Z,13.00
2023-05-01T21:25:57.598Z,12.95
2023-05-01T21:28:25.137Z,12.91
2023-05-01T21:30:53.954Z,12.75
2023-05-01T21:33:21.512Z,12.68
2023-05-01T21:35:49.326Z,12.63
2023-05-01T21:38:16.737Z,12.54
2023-05-01T21:40:46.191Z,12.51
2023-05-01T21:43:13.918Z,12.39
2023-05-01T21:45:44.617Z,12.25
2023-05-01T21:48:15.662Z,12.24
2023-05-01T21:50:43.237Z,12.14
2023-05-01T21:53:10.720Z,12.06
2023-05-01T21:55:38.886Z,12.00
2023-05-01T21:58:06.301Z,11.97
2023-05-01T22:00:33.971Z,11.88
2023-05-01T22:03:07.059Z,11.75
2023-05-01T22:05:34.990Z,11.70
2023-05-01T22:08:02.420Z,11.73
2023-05-01T22:10:29.904Z,11.68
2023-05-01T22:12:57.330Z,11.69
2023-05-01T22:15:24.868Z,11.66
2023-05-01T22:17:52.340Z,11.68
2023-05-01T22:20:19.839Z,11.73
2023-05-01T22:22:47.466Z,11.69
2023-05-01T22:25:14.991Z,11.73
2023-05-01T22:27:42.408Z,11.70
2023-05-01T22:30:10.528Z,11.64
2023-05-01T22:32:38.020Z,11.61
2023-05-01T22:35:07.458Z,11.61
2023-05-01T22:37:34.904Z,11.62
2023-05-01T22:40:02.608Z,11.61
2023-05-01T22:42:30.609Z,11.57
2023-05-01T22:44:58.090Z,11.58
2023-05-01T22:47:25.525Z,11.58
2023-05-01T22:49:53.050Z,11.61
2023-05-01T22:52:20.530Z,11.57
2023-05-01T22:54:48.010Z,11.55
2023-05-01T22:57:16.077Z,11.54
2023-05-01T22:59:45.715Z,11.57
2023-05-01T23:02:16.450Z,11.53
2023-05-01T23:04:44.154Z,11.54
2023-05-01T23:07:14.086Z,11.54
2023-05-01T23:09:41.731Z,11.57
2023-05-01T23:12:16.816Z,11.56
2023-05-01T23:14:46.429Z,11.57
2023-05-01T23:17:14.987Z,11.58
2023-05-01T23:19:43.612Z,11.58
2023-05-01T23:22:13.184Z,11.59
2023-05-01T23:24:44.454Z,11.60
2023-05-01T23:27:12.578Z,11.62
2023-05-01T23:29:40.983Z,11.62
2023-05-01T23:32:22.223Z,11.64
2023-05-01T23:34:49.729Z,11.63
2023-05-01T23:37:17.132Z,11.58
2023-05-01T23:39:46.013Z,11.61
2023-05-01T23:42:13.804Z,11.59
2023-05-01T23:44:41.308Z,11.57
2023-05-01T23:47:09.435Z,11.53
2023-05-01T23:49:37.269Z,11.47
2023-05-01T23:52:06.977Z,11.42
2023-05-01T23:54:34.571Z,11.37
2023-05-01T23:57:02.652Z,11.28
2023-05-01T23:59:30.232Z,11.25
